Time;durP1;ratioP1;P1;durP2;ratioP2;P2;SDS_P1;SDS_P2;PMS_P1;PMS_P2;Temp;Humidity;BMP_temperature;BMP_pressure;BME280_temperature;BME280_humidity;BME280_pressure;Samples;Min_cycle;Max_cycle;Signal;HPM_P1;HPM_P2
2022/05/16 00:01:33;;;;;;;2.60;2.37;;;;;;;;;;4989983;28;20190;-77
2022/05/16 00:03:58;;;;;;;1.70;1.60;;;;;;;;;;4987657;28;20326;-77
2022/05/16 00:06:23;;;;;;;2.47;2.25;;;;;;;;;;4989236;28;20196;-77
2022/05/16 00:08:48;;;;;;;3.73;2.80;;;;;;;;;;4994440;28;20183;-77
2022/05/16 00:11:14;;;;;;;2.20;1.90;;;;;;;;;;4998860;28;20274;-77
2022/05/16 00:13:39;;;;;;;3.53;2.50;;;;;;;;;;4989459;28;20251;-77
2022/05/16 00:16:04;;;;;;;3.37;2.23;;;;;;;;;;4990842;28;20213;-77
2022/05/16 00:18:29;;;;;;;4.23;2.47;;;;;;;;;;4988140;28;20200;-77
2022/05/16 00:20:55;;;;;;;5.73;3.27;;;;;;;;;;4992555;28;20181;-77
2022/05/16 00:23:20;;;;;;;2.50;2.20;;;;;;;;;;4987977;28;20180;-78
2022/05/16 00:25:46;;;;;;;6.03;3.07;;;;;;;;;;4988199;28;20251;-77
2022/05/16 00:28:11;;;;;;;2.53;2.30;;;;;;;;;;4990575;28;20259;-77
2022/05/16 00:30:36;;;;;;;4.20;2.53;;;;;;;;;;4989271;28;20181;-77
2022/05/16 00:33:01;;;;;;;2.57;2.37;;;;;;;;;;4988691;28;20241;-78
2022/05/16 00:35:26;;;;;;;2.93;2.63;;;;;;;;;;4988359;28;20210;-77
2022/05/16 00:37:52;;;;;;;4.30;3.00;;;;;;;;;;4989925;28;20294;-77
2022/05/16 00:40:18;;;;;;;4.47;2.80;;;;;;;;;;4989677;28;20207;-77
2022/05/16 00:42:43;;;;;;;4.23;2.60;;;;;;;;;;4990213;28;20200;-77
2022/05/16 00:45:10;;;;;;;3.40;2.50;;;;;;;;;;4990995;28;20182;-77
2022/05/16 00:47:35;;;;;;;3.20;2.90;;;;;;;;;;4987410;28;20178;-77
2022/05/16 00:50:00;;;;;;;3.30;2.83;;;;;;;;;;4991580;28;20263;-77
2022/05/16 00:52:27;;;;;;;2.57;2.27;;;;;;;;;;4988214;28;20196;-77
2022/05/16 00:54:57;;;;;;;4.50;3.20;;;;;;;;;;4987893;28;20193;-78
2022/05/16 00:57:23;;;;;;;4.67;3.10;;;;;;;;;;5003898;28;20232;-77
2022/05/16 01:00:00;;;;;;;3.40;3.10;;;;;;;;;;5002011;28;20264;-77
2022/05/16 01:05:11;;;;;;;3.10;2.90;;;;;;;;;;4988852;28;20234;-77
2022/05/16 01:07:38;;;;;;;2.73;2.53;;;;;;;;;;4989332;28;20179;-77
2022/05/16 01:10:04;;;;;;;3.33;3.03;;;;;;;;;;4998796;28;20245;-76
2022/05/16 01:12:34;;;;;;;3.60;2.50;;;;;;;;;;5005079;28;20219;-77
2022/05/16 01:15:01;;;;;;;2.90;2.70;;;;;;;;;;4989893;28;20200;-77
2022/05/16 01:17:27;;;;;;;3.40;3.00;;;;;;;;;;4989046;28;20239;-78
2022/05/16 01:19:52;;;;;;;3.40;3.10;;;;;;;;;;4988777;28;20185;-77
2022/05/16 01:22:20;;;;;;;2.80;2.60;;;;;;;;;;4989155;28;20219;-76
2022/05/16 01:24:45;;;;;;;3.35;3.05;;;;;;;;;;5004291;28;20224;-77
2022/05/16 01:27:10;;;;;;;3.23;2.93;;;;;;;;;;4989992;28;20253;-77
2022/05/16 01:29:36;;;;;;;3.13;2.83;;;;;;;;;;4989784;28;20176;-78
2022/05/16 01:32:01;;;;;;;4.47;3.00;;;;;;;;;;4989886;28;20187;-77
2022/05/16 01:34:27;;;;;;;3.60;3.30;;;;;;;;;;4987844;28;20198;-77
2022/05/16 01:36:52;;;;;;;5.93;3.77;;;;;;;;;;4988481;28;20229;-77
2022/05/16 01:39:18;;;;;;;3.27;2.90;;;;;;;;;;4990383;28;20185;-78
2022/05/16 01:41:43;;;;;;;5.73;3.47;;;;;;;;;;4990186;28;20195;-77
2022/05/16 01:44:08;;;;;;;3.70;3.40;;;;;;;;;;4988809;28;20176;-77
2022/05/16 01:46:36;;;;;;;3.40;3.10;;;;;;;;;;4992124;28;20178;-77
2022/05/16 01:49:02;;;;;;;4.17;3.77;;;;;;;;;;4988258;28;20279;-77
2022/05/16 01:51:27;;;;;;;4.97;4.03;;;;;;;;;;4988674;28;20185;-78
2022/05/16 01:53:52;;;;;;;5.17;3.77;;;;;;;;;;4987775;28;20193;-77
2022/05/16 01:56:18;;;;;;;4.73;3.50;;;;;;;;;;4987924;28;20294;-76
2022/05/16 01:58:44;;;;;;;3.37;3.03;;;;;;;;;;4990139;28;20188;-77
2022/05/16 02:01:09;;;;;;;3.97;3.50;;;;;;;;;;4988984;28;20285;-78
2022/05/16 02:03:39;;;;;;;5.03;3.57;;;;;;;;;;4989742;28;20229;-78
2022/05/16 02:06:04;;;;;;;3.73;3.40;;;;;;;;;;4979386;28;20210;-77
2022/05/16 02:08:29;;;;;;;5.13;3.37;;;;;;;;;;4991990;28;20218;-77
2022/05/16 02:10:55;;;;;;;4.53;3.10;;;;;;;;;;4993853;28;20177;-78
2022/05/16 02:13:20;;;;;;;5.10;3.43;;;;;;;;;;4988313;28;20265;-76
2022/05/16 02:15:45;;;;;;;4.63;3.50;;;;;;;;;;4989774;28;20220;-77
2022/05/16 02:18:11;;;;;;;4.53;4.13;;;;;;;;;;4987501;28;20183;-78
2022/05/16 02:20:37;;;;;;;3.57;3.20;;;;;;;;;;4986627;28;20255;-77
2022/05/16 02:25:50;;;;;;;5.23;3.47;;;;;;;;;;4984212;28;20235;-77
2022/05/16 02:28:17;;;;;;;7.23;3.80;;;;;;;;;;4987822;28;20182;-78
2022/05/16 02:30:42;;;;;;;3.93;3.57;;;;;;;;;;4988211;28;20193;-78
2022/05/16 02:33:08;;;;;;;3.90;3.50;;;;;;;;;;4989324;28;20215;-78
2022/05/16 02:35:34;;;;;;;4.20;3.43;;;;;;;;;;4991122;28;20181;-78
2022/05/16 02:37:59;;;;;;;5.80;3.47;;;;;;;;;;4987459;28;20243;-77
2022/05/16 02:40:25;;;;;;;4.87;3.83;;;;;;;;;;4985240;28;20182;-78
2022/05/16 02:42:51;;;;;;;7.63;3.40;;;;;;;;;;4988338;28;20184;-78
2022/05/16 02:45:16;;;;;;;3.83;3.13;;;;;;;;;;4990679;28;20180;-78
2022/05/16 02:47:41;;;;;;;3.83;3.40;;;;;;;;;;4990721;28;20192;-77
2022/05/16 02:50:07;;;;;;;4.63;3.10;;;;;;;;;;4986919;28;20181;-78
2022/05/16 02:52:32;;;;;;;3.70;3.40;;;;;;;;;;4988089;28;20192;-78
2022/05/16 02:55:00;;;;;;;4.07;3.70;;;;;;;;;;4988646;28;20185;-77
2022/05/16 02:57:26;;;;;;;3.83;2.97;;;;;;;;;;4985718;28;20210;-78
2022/05/16 02:59:51;;;;;;;3.63;3.30;;;;;;;;;;4987756;28;20176;-77
2022/05/16 03:02:17;;;;;;;4.33;3.20;;;;;;;;;;5006988;28;20173;-78
2022/05/16 03:04:42;;;;;;;3.93;3.30;;;;;;;;;;4992414;28;21448;-77
2022/05/16 03:07:08;;;;;;;3.20;2.90;;;;;;;;;;4991012;28;20186;-78
2022/05/16 03:09:33;;;;;;;3.33;3.03;;;;;;;;;;4992793;28;20178;-77
2022/05/16 03:11:59;;;;;;;4.93;2.80;;;;;;;;;;4992510;28;20212;-78
2022/05/16 03:14:24;;;;;;;3.37;3.00;;;;;;;;;;4989833;28;20193;-78
2022/05/16 03:16:49;;;;;;;4.37;2.77;;;;;;;;;;4993041;28;20205;-77
2022/05/16 03:19:15;;;;;;;6.03;2.93;;;;;;;;;;4991952;28;20261;-77
2022/05/16 03:21:40;;;;;;;5.87;3.80;;;;;;;;;;4992615;28;20190;-77
2022/05/16 03:24:06;;;;;;;3.50;2.67;;;;;;;;;;4991627;28;20186;-78
2022/05/16 03:26:31;;;;;;;5.73;3.43;;;;;;;;;;4989747;28;20286;-77
2022/05/16 03:28:57;;;;;;;4.57;3.20;;;;;;;;;;4991717;28;20185;-78
2022/05/16 03:31:22;;;;;;;5.77;3.23;;;;;;;;;;4989328;28;20195;-77
2022/05/16 03:33:47;;;;;;;4.10;3.70;;;;;;;;;;4993885;28;20478;-78
2022/05/16 03:36:12;;;;;;;4.38;2.92;;;;;;;;;;4990406;28;20278;-77
2022/05/16 03:41:22;;;;;;;3.23;2.60;;;;;;;;;;4991211;28;20190;-78
2022/05/16 03:43:47;;;;;;;5.93;3.30;;;;;;;;;;4992080;28;20179;-78
2022/05/16 03:46:12;;;;;;;3.87;3.57;;;;;;;;;;4990792;28;20191;-77
2022/05/16 03:48:40;;;;;;;3.23;2.80;;;;;;;;;;4990198;28;20206;-78
2022/05/16 03:51:06;;;;;;;4.60;3.57;;;;;;;;;;5004700;28;20181;-77
2022/05/16 03:53:31;;;;;;;3.23;2.93;;;;;;;;;;4990788;28;20191;-77
2022/05/16 03:55:57;;;;;;;4.17;3.50;;;;;;;;;;4991187;28;20202;-77
2022/05/16 03:58:22;;;;;;;4.27;3.10;;;;;;;;;;4988188;28;20507;-77
2022/05/16 04:00:47;;;;;;;3.60;3.10;;;;;;;;;;4990305;28;20186;-77
2022/05/16 04:03:13;;;;;;;5.07;2.97;;;;;;;;;;4989852;28;20188;-77
2022/05/16 04:05:38;;;;;;;4.30;3.90;;;;;;;;;;4989258;28;20175;-78
2022/05/16 04:08:04;;;;;;;6.70;3.30;;;;;;;;;;4994823;28;20176;-78
2022/05/16 04:10:29;;;;;;;5.57;3.10;;;;;;;;;;4994868;28;20189;-78
2022/05/16 04:12:54;;;;;;;6.80;3.27;;;;;;;;;;4990024;28;20210;-78
2022/05/16 04:15:21;;;;;;;5.13;3.23;;;;;;;;;;4991515;28;20270;-78
2022/05/16 04:17:46;;;;;;;4.00;3.33;;;;;;;;;;4988925;28;20205;-78
2022/05/16 04:20:12;;;;;;;3.70;3.30;;;;;;;;;;4991292;28;20177;-77
2022/05/16 04:22:37;;;;;;;3.60;3.30;;;;;;;;;;4987991;28;20180;-78
2022/05/16 04:25:03;;;;;;;6.17;3.80;;;;;;;;;;4987631;28;20243;-77
2022/05/16 04:27:28;;;;;;;6.17;3.93;;;;;;;;;;4988379;28;20197;-77
2022/05/16 04:29:54;;;;;;;3.90;3.03;;;;;;;;;;4988262;28;20273;-77
2022/05/16 04:32:19;;;;;;;4.67;3.20;;;;;;;;;;4990576;28;20227;-78
2022/05/16 04:34:44;;;;;;;6.70;4.00;;;;;;;;;;4989299;28;20177;-75
2022/05/16 04:37:09;;;;;;;4.07;3.60;;;;;;;;;;4988395;28;20210;-77
2022/05/16 04:39:35;;;;;;;6.93;3.50;;;;;;;;;;4988757;28;20184;-78
2022/05/16 04:44:44;;;;;;;7.20;3.97;;;;;;;;;;4992281;28;20197;-77
2022/05/16 04:47:09;;;;;;;6.20;4.37;;;;;;;;;;4991198;28;20189;-78
2022/05/16 04:49:35;;;;;;;4.37;3.97;;;;;;;;;;4989279;28;21676;-76
2022/05/16 04:52:00;;;;;;;7.10;4.47;;;;;;;;;;4990332;28;20211;-76
2022/05/16 04:54:26;;;;;;;4.20;3.73;;;;;;;;;;4988777;28;20276;-78
2022/05/16 04:56:52;;;;;;;4.57;3.57;;;;;;;;;;4988664;28;20256;-78
2022/05/16 04:59:17;;;;;;;6.57;4.07;;;;;;;;;;5003281;28;20236;-78
2022/05/16 05:01:43;;;;;;;5.30;4.20;;;;;;;;;;4987736;28;20236;-77
2022/05/16 05:04:08;;;;;;;8.43;4.80;;;;;;;;;;4989788;28;20185;-78
2022/05/16 05:06:33;;;;;;;4.47;3.47;;;;;;;;;;4991553;28;20267;-78
2022/05/16 05:08:58;;;;;;;3.50;3.10;;;;;;;;;;4994666;28;20204;-78
2022/05/16 05:16:51;;;;;;;5.67;4.23;;;;;;;;;;4984831;28;20220;-78
2022/05/16 05:19:17;;;;;;;5.00;4.50;;;;;;;;;;4988528;28;20177;-77
2022/05/16 05:21:42;;;;;;;4.87;3.97;;;;;;;;;;4987611;28;20192;-77
2022/05/16 05:24:07;;;;;;;6.30;4.00;;;;;;;;;;4988461;28;20259;-78
2022/05/16 05:26:32;;;;;;;6.60;4.00;;;;;;;;;;4988424;28;20237;-78
2022/05/16 05:28:58;;;;;;;4.03;3.60;;;;;;;;;;4985503;28;20285;-78
2022/05/16 05:31:25;;;;;;;5.50;5.00;;;;;;;;;;4987126;28;20216;-78
2022/05/16 05:33:50;;;;;;;5.20;4.70;;;;;;;;;;4986324;28;20201;-78
2022/05/16 05:36:16;;;;;;;8.93;6.37;;;;;;;;;;4985255;28;20197;-78
2022/05/16 05:38:41;;;;;;;4.87;4.10;;;;;;;;;;4983610;28;20185;-78
2022/05/16 05:41:07;;;;;;;4.57;3.93;;;;;;;;;;4988198;28;20188;-78
2022/05/16 05:43:32;;;;;;;4.50;3.67;;;;;;;;;;4988728;28;20213;-78
2022/05/16 05:45:58;;;;;;;7.53;4.37;;;;;;;;;;4992275;28;20207;-78
2022/05/16 05:48:23;;;;;;;5.60;3.80;;;;;;;;;;4990080;28;20191;-78
2022/05/16 05:50:48;;;;;;;5.40;4.90;;;;;;;;;;4987404;28;20174;-78
2022/05/16 05:53:13;;;;;;;7.97;3.77;;;;;;;;;;4987919;28;20200;-78
2022/05/16 05:55:40;;;;;;;4.90;4.00;;;;;;;;;;4990148;28;20231;-78
2022/05/16 05:58:05;;;;;;;5.20;3.87;;;;;;;;;;5005162;28;20201;-77
2022/05/16 06:00:30;;;;;;;6.80;5.40;;;;;;;;;;4989392;28;20192;-78
2022/05/16 06:02:56;;;;;;;4.93;4.53;;;;;;;;;;4989131;28;20209;-78
2022/05/16 06:05:22;;;;;;;6.97;3.73;;;;;;;;;;4989227;28;20181;-78
2022/05/16 06:07:47;;;;;;;7.43;4.30;;;;;;;;;;4990850;28;20190;-78
2022/05/16 06:10:13;;;;;;;4.83;3.70;;;;;;;;;;4990366;28;20177;-78
2022/05/16 06:12:39;;;;;;;5.87;3.90;;;;;;;;;;4993761;28;20187;-78
2022/05/16 06:15:05;;;;;;;3.40;3.10;;;;;;;;;;4987932;28;20187;-77
2022/05/16 06:17:30;;;;;;;5.30;3.60;;;;;;;;;;4988299;28;20273;-78
2022/05/16 06:19:57;;;;;;;3.90;3.50;;;;;;;;;;4987317;28;20180;-77
2022/05/16 06:22:22;;;;;;;4.37;3.97;;;;;;;;;;4991679;28;20211;-76
2022/05/16 06:27:31;;;;;;;3.50;3.10;;;;;;;;;;4987852;28;20241;-78
2022/05/16 06:29:57;;;;;;;4.53;3.30;;;;;;;;;;4987207;28;20234;-78
2022/05/16 06:32:22;;;;;;;3.77;3.47;;;;;;;;;;4987725;28;20210;-79
2022/05/16 06:34:48;;;;;;;3.87;3.30;;;;;;;;;;4983544;28;20186;-78
2022/05/16 06:37:14;;;;;;;3.80;3.47;;;;;;;;;;4990776;28;20202;-78
2022/05/16 06:39:39;;;;;;;3.70;3.40;;;;;;;;;;4987296;28;20265;-78
2022/05/16 06:42:04;;;;;;;5.27;4.10;;;;;;;;;;4993270;28;20260;-79
2022/05/16 06:44:30;;;;;;;7.37;3.90;;;;;;;;;;4984943;28;20244;-78
2022/05/16 06:46:55;;;;;;;4.07;3.50;;;;;;;;;;4991114;28;20177;-78
2022/05/16 06:49:21;;;;;;;5.03;4.00;;;;;;;;;;4990305;28;20183;-77
2022/05/16 06:51:47;;;;;;;4.60;4.03;;;;;;;;;;4989572;28;20234;-77
2022/05/16 06:54:12;;;;;;;4.70;3.90;;;;;;;;;;4991777;28;20215;-76
2022/05/16 06:56:37;;;;;;;7.07;4.13;;;;;;;;;;5006322;28;20235;-78
2022/05/16 06:59:02;;;;;;;5.23;3.67;;;;;;;;;;4990976;28;20187;-78
2022/05/16 07:01:28;;;;;;;4.63;3.67;;;;;;;;;;4990362;28;20219;-77
2022/05/16 07:03:53;;;;;;;4.83;4.30;;;;;;;;;;4987997;28;20259;-77
2022/05/16 07:06:18;;;;;;;4.77;3.67;;;;;;;;;;4989264;28;20193;-78
2022/05/16 07:08:43;;;;;;;4.17;3.83;;;;;;;;;;4996966;28;20172;-77
2022/05/16 07:11:09;;;;;;;4.60;3.87;;;;;;;;;;4988668;28;20199;-78
2022/05/16 07:13:35;;;;;;;5.90;4.20;;;;;;;;;;4987414;28;20224;-78
2022/05/16 07:16:00;;;;;;;4.57;3.83;;;;;;;;;;4988955;28;20183;-76
2022/05/16 07:18:27;;;;;;;6.20;4.20;;;;;;;;;;4991733;28;20261;-78
2022/05/16 07:20:52;;;;;;;6.33;3.90;;;;;;;;;;4989999;28;20185;-78
2022/05/16 07:23:17;;;;;;;4.20;3.80;;;;;;;;;;4990620;28;20266;-78
2022/05/16 07:28:27;;;;;;;8.03;3.93;;;;;;;;;;4990166;28;20445;-77
2022/05/16 07:30:53;;;;;;;4.80;4.23;;;;;;;;;;4988490;28;20192;-77
2022/05/16 07:33:19;;;;;;;5.17;4.17;;;;;;;;;;4990732;28;20200;-77
2022/05/16 07:35:44;;;;;;;6.93;3.97;;;;;;;;;;4991811;28;20191;-76
2022/05/16 07:38:09;;;;;;;5.57;4.20;;;;;;;;;;4991034;28;20207;-78
2022/05/16 07:40:35;;;;;;;7.13;4.27;;;;;;;;;;4987042;28;20259;-77
2022/05/16 07:43:01;;;;;;;5.20;4.47;;;;;;;;;;4990798;28;20273;-77
2022/05/16 07:45:26;;;;;;;7.60;4.73;;;;;;;;;;4988322;28;20246;-76
2022/05/16 07:47:51;;;;;;;5.27;4.50;;;;;;;;;;4988234;28;20205;-77
2022/05/16 07:50:17;;;;;;;5.83;4.23;;;;;;;;;;4991284;28;20253;-77
2022/05/16 07:52:49;;;;;;;6.30;3.80;;;;;;;;;;4987494;28;20189;-76
2022/05/16 07:55:15;;;;;;;6.00;4.70;;;;;;;;;;4988958;28;20221;-78
2022/05/16 07:57:40;;;;;;;5.33;3.80;;;;;;;;;;4985749;28;20212;-76
2022/05/16 08:00:06;;;;;;;4.53;4.13;;;;;;;;;;4990686;28;20170;-77
2022/05/16 08:02:31;;;;;;;6.83;4.37;;;;;;;;;;4987886;28;20178;-77
2022/05/16 08:04:57;;;;;;;4.73;4.20;;;;;;;;;;5004052;28;20187;-76
2022/05/16 08:07:22;;;;;;;6.87;4.77;;;;;;;;;;4995164;28;20182;-77
2022/05/16 08:12:32;;;;;;;5.63;4.13;;;;;;;;;;4990997;28;20190;-77
2022/05/16 08:15:00;;;;;;;7.80;4.13;;;;;;;;;;4992978;28;20181;-77
2022/05/16 08:17:25;;;;;;;4.90;4.40;;;;;;;;;;4990472;28;20207;-77
2022/05/16 08:19:50;;;;;;;6.63;4.90;;;;;;;;;;4983346;28;20184;-77
2022/05/16 08:22:15;;;;;;;5.23;4.17;;;;;;;;;;5006334;28;20259;-78
2022/05/16 08:24:41;;;;;;;6.07;4.53;;;;;;;;;;4985360;28;20236;-77
2022/05/16 08:27:06;;;;;;;5.83;3.80;;;;;;;;;;4986532;28;20198;-76
2022/05/16 08:29:32;;;;;;;4.97;4.30;;;;;;;;;;4989531;28;20187;-77
2022/05/16 08:31:57;;;;;;;4.73;4.13;;;;;;;;;;4988125;28;20261;-77
2022/05/16 08:34:23;;;;;;;5.93;4.53;;;;;;;;;;4987539;28;20181;-77
2022/05/16 08:42:17;;;;;;;5.47;4.27;;;;;;;;;;4990892;28;20182;-76
2022/05/16 08:44:48;;;;;;;5.47;4.40;;;;;;;;;;4988627;28;20183;-78
2022/05/16 08:47:33;;;;;;;5.97;4.00;;;;;;;;;;4990602;28;20217;-76
2022/05/16 08:50:01;;;;;;;7.50;4.40;;;;;;;;;;4993952;28;20266;-77
2022/05/16 08:52:26;;;;;;;4.57;3.93;;;;;;;;;;4988763;28;20270;-76
2022/05/16 08:55:01;;;;;;;8.43;4.77;;;;;;;;;;4991383;28;20277;-76
2022/05/16 08:57:31;;;;;;;6.53;4.30;;;;;;;;;;4988578;28;20202;-77
2022/05/16 09:00:02;;;;;;;7.87;3.93;;;;;;;;;;4988427;28;20210;-77
2022/05/16 09:02:29;;;;;;;6.03;4.07;;;;;;;;;;4987969;28;20177;-77
2022/05/16 09:05:00;;;;;;;6.50;3.90;;;;;;;;;;4990986;28;20182;-81
2022/05/16 09:07:28;;;;;;;5.57;4.03;;;;;;;;;;4988534;28;20199;-77
2022/05/16 09:10:05;;;;;;;7.43;4.60;;;;;;;;;;4991499;28;20176;-77
2022/05/16 09:12:34;;;;;;;8.97;4.30;;;;;;;;;;4990112;28;20189;-79
2022/05/16 09:15:20;;;;;;;5.87;4.37;;;;;;;;;;4986484;28;20181;-78
2022/05/16 09:17:49;;;;;;;4.30;3.80;;;;;;;;;;4987104;28;20251;-77
2022/05/16 09:20:33;;;;;;;5.33;4.10;;;;;;;;;;4985509;28;20177;-77
2022/05/16 09:23:21;;;;;;;6.20;4.87;;;;;;;;;;4983858;28;20172;-78
2022/05/16 09:25:52;;;;;;;8.00;4.60;;;;;;;;;;4989524;28;20238;-77
2022/05/16 09:28:37;;;;;;;6.53;4.27;;;;;;;;;;4987984;28;20191;-78
2022/05/16 09:31:10;;;;;;;5.10;4.30;;;;;;;;;;4987081;28;20189;-78
2022/05/16 09:33:36;;;;;;;5.93;4.53;;;;;;;;;;4988074;28;20216;-78
2022/05/16 09:36:02;;;;;;;7.30;4.10;;;;;;;;;;4986612;28;20191;-76
2022/05/16 09:38:28;;;;;;;5.27;4.77;;;;;;;;;;4987767;28;20224;-77
2022/05/16 09:41:13;;;;;;;5.30;3.80;;;;;;;;;;4990300;28;20210;-77
2022/05/16 09:43:44;;;;;;;5.70;3.20;;;;;;;;;;4974770;28;20499;-78
2022/05/16 09:46:21;;;;;;;6.63;3.80;;;;;;;;;;4988386;28;20207;-77
2022/05/16 09:48:46;;;;;;;15.87;3.60;;;;;;;;;;4986729;28;20225;-78
2022/05/16 09:51:11;;;;;;;3.83;3.10;;;;;;;;;;4989435;28;20229;-77
2022/05/16 09:53:43;;;;;;;4.87;3.57;;;;;;;;;;4991256;28;20182;-78
2022/05/16 09:56:20;;;;;;;5.57;4.00;;;;;;;;;;4991333;28;20205;-77
2022/05/16 09:58:47;;;;;;;6.90;3.10;;;;;;;;;;4990792;28;20178;-77
2022/05/16 10:01:13;;;;;;;4.73;3.10;;;;;;;;;;4988889;28;20265;-78
2022/05/16 10:03:41;;;;;;;4.47;2.87;;;;;;;;;;4989479;28;20268;-78
2022/05/16 10:06:08;;;;;;;4.30;3.20;;;;;;;;;;4986881;28;20183;-77
2022/05/16 10:08:36;;;;;;;5.20;3.00;;;;;;;;;;4991301;28;21429;-77
2022/05/16 10:11:03;;;;;;;4.30;3.07;;;;;;;;;;4992625;28;20179;-78
2022/05/16 10:13:29;;;;;;;5.63;3.00;;;;;;;;;;4994565;28;20174;-77
2022/05/16 10:15:56;;;;;;;5.37;3.77;;;;;;;;;;4989995;28;20174;-77
2022/05/16 10:18:22;;;;;;;7.00;3.67;;;;;;;;;;4990460;28;20205;-77
2022/05/16 10:20:50;;;;;;;5.53;3.80;;;;;;;;;;4993094;28;20190;-78
2022/05/16 10:23:24;;;;;;;3.57;2.97;;;;;;;;;;4993635;28;20184;-78
2022/05/16 10:25:52;;;;;;;5.10;3.60;;;;;;;;;;4989538;28;20255;-78
2022/05/16 10:28:21;;;;;;;8.30;3.37;;;;;;;;;;4993405;28;20272;-78
2022/05/16 10:33:32;;;;;;;5.37;3.57;;;;;;;;;;4990459;28;20300;-77
2022/05/16 10:35:59;;;;;;;4.30;2.90;;;;;;;;;;5005296;28;20193;-78
2022/05/16 10:38:38;;;;;;;5.63;3.10;;;;;;;;;;4988879;28;20243;-78
2022/05/16 10:41:07;;;;;;;3.60;2.57;;;;;;;;;;4992834;28;20190;-78
2022/05/16 10:43:56;;;;;;;5.53;2.70;;;;;;;;;;4989955;28;20265;-77
2022/05/16 10:46:27;;;;;;;3.13;2.43;;;;;;;;;;4992666;28;20266;-77
2022/05/16 10:48:55;;;;;;;4.50;2.60;;;;;;;;;;4990564;28;20185;-78
2022/05/16 10:51:41;;;;;;;4.93;2.50;;;;;;;;;;4990739;28;20176;-78
2022/05/16 10:54:25;;;;;;;3.87;2.30;;;;;;;;;;4990268;28;20234;-78
2022/05/16 10:56:59;;;;;;;5.27;1.80;;;;;;;;;;4992845;28;20221;-77
2022/05/16 10:59:24;;;;;;;4.37;2.20;;;;;;;;;;4996440;28;20225;-78
2022/05/16 11:02:04;;;;;;;4.40;1.60;;;;;;;;;;4988576;28;20198;-77
2022/05/16 11:04:29;;;;;;;2.43;1.60;;;;;;;;;;4987927;28;20174;-78
2022/05/16 11:07:09;;;;;;;2.13;1.80;;;;;;;;;;5007170;28;20250;-77
2022/05/16 11:09:44;;;;;;;2.23;1.80;;;;;;;;;;4989705;28;20187;-78
2022/05/16 11:12:31;;;;;;;2.93;1.70;;;;;;;;;;5000401;28;20241;-77
2022/05/16 11:14:56;;;;;;;3.23;2.07;;;;;;;;;;4992320;28;20191;-77
2022/05/16 11:17:28;;;;;;;3.23;1.80;;;;;;;;;;4990085;28;20309;-78
2022/05/16 11:19:59;;;;;;;2.63;2.07;;;;;;;;;;4986446;28;20183;-77
2022/05/16 11:22:28;;;;;;;2.07;1.53;;;;;;;;;;4986751;28;20226;-77
2022/05/16 11:24:54;;;;;;;2.47;1.60;;;;;;;;;;4989372;28;20234;-78
2022/05/16 11:27:19;;;;;;;3.45;1.90;;;;;;;;;;4990682;28;20197;-77
2022/05/16 11:29:49;;;;;;;2.13;1.83;;;;;;;;;;4991844;28;20207;-78
2022/05/16 11:32:34;;;;;;;2.23;1.43;;;;;;;;;;4990908;28;20210;-78
2022/05/16 11:35:02;;;;;;;3.80;1.63;;;;;;;;;;4975749;28;20275;-80
2022/05/16 11:37:37;;;;;;;6.50;2.10;;;;;;;;;;5006739;28;20320;-79
2022/05/16 11:40:06;;;;;;;5.07;1.97;;;;;;;;;;4989782;28;20179;-79
2022/05/16 11:42:33;;;;;;;4.03;1.80;;;;;;;;;;4986251;28;20243;-80
2022/05/16 11:45:19;;;;;;;3.37;1.90;;;;;;;;;;4991544;28;20237;-80
2022/05/16 11:47:48;;;;;;;3.67;2.10;;;;;;;;;;4986220;28;20211;-81
2022/05/16 11:50:21;;;;;;;3.93;2.70;;;;;;;;;;4989399;28;20189;-81
2022/05/16 11:52:58;;;;;;;3.73;1.63;;;;;;;;;;4991827;28;20183;-81
2022/05/16 12:00:54;;;;;;;2.67;2.30;;;;;;;;;;4990277;28;20221;-80
2022/05/16 12:03:20;;;;;;;3.50;1.90;;;;;;;;;;4992911;28;20218;-80
2022/05/16 12:05:50;;;;;;;3.93;1.97;;;;;;;;;;4989946;28;20604;-79
2022/05/16 12:08:15;;;;;;;2.70;2.13;;;;;;;;;;4991679;28;20186;-79
2022/05/16 12:10:55;;;;;;;3.33;2.17;;;;;;;;;;4988303;28;20577;-79
2022/05/16 12:13:28;;;;;;;2.57;2.30;;;;;;;;;;4989563;28;20247;-79
2022/05/16 12:16:12;;;;;;;3.87;2.47;;;;;;;;;;4982192;28;20185;-79
2022/05/16 12:18:39;;;;;;;2.37;2.17;;;;;;;;;;4984941;28;20208;-77
2022/05/16 12:21:12;;;;;;;3.63;2.13;;;;;;;;;;4991172;28;20254;-78
2022/05/16 12:23:49;;;;;;;4.73;2.57;;;;;;;;;;4985018;28;20189;-79
2022/05/16 12:26:27;;;;;;;3.23;2.47;;;;;;;;;;4993226;28;20220;-79
2022/05/16 12:29:08;;;;;;;4.00;2.60;;;;;;;;;;4990185;28;20187;-78
2022/05/16 12:31:59;;;;;;;3.60;2.10;;;;;;;;;;4980663;28;20187;-79
2022/05/16 12:34:35;;;;;;;5.20;2.53;;;;;;;;;;5234553;23;20258;-79
2022/05/16 12:37:01;;;;;;;3.47;2.60;;;;;;;;;;5021518;28;20209;-79
2022/05/16 12:39:48;;;;;;;2.47;1.80;;;;;;;;;;5009022;28;20283;-78
2022/05/16 12:42:35;;;;;;;9.67;3.07;;;;;;;;;;5026407;28;20189;-77
2022/05/16 12:45:02;;;;;;;3.33;2.43;;;;;;;;;;5011582;28;20171;-79
2022/05/16 12:47:27;;;;;;;2.83;2.33;;;;;;;;;;5014510;28;20187;-78
2022/05/16 12:50:06;;;;;;;3.37;2.37;;;;;;;;;;5009190;28;20276;-78
2022/05/16 12:52:50;;;;;;;5.43;2.40;;;;;;;;;;5008931;28;20190;-79
2022/05/16 12:55:28;;;;;;;3.10;2.10;;;;;;;;;;5026622;28;20185;-78
2022/05/16 12:58:10;;;;;;;6.90;2.80;;;;;;;;;;5023946;28;20243;-79
2022/05/16 13:00:48;;;;;;;3.20;2.30;;;;;;;;;;5010334;28;20174;-79
2022/05/16 13:03:18;;;;;;;3.77;2.47;;;;;;;;;;5025272;28;20293;-80
2022/05/16 13:05:46;;;;;;;6.03;2.57;;;;;;;;;;5026536;28;20170;-79
2022/05/16 13:08:21;;;;;;;4.03;2.60;;;;;;;;;;5009450;28;20190;-78
2022/05/16 13:10:51;;;;;;;4.43;2.90;;;;;;;;;;5008328;28;20185;-79
2022/05/16 13:13:32;;;;;;;3.37;2.77;;;;;;;;;;5009695;28;20196;-78
2022/05/16 13:16:09;;;;;;;2.60;2.37;;;;;;;;;;5023919;28;20316;-79
2022/05/16 13:18:40;;;;;;;3.30;2.20;;;;;;;;;;5006890;28;20215;-78
2022/05/16 13:21:10;;;;;;;4.27;2.53;;;;;;;;;;5001146;28;20200;-78
2022/05/16 13:23:38;;;;;;;4.57;2.20;;;;;;;;;;5025545;28;20181;-78
2022/05/16 13:31:37;;;;;;;4.93;2.47;;;;;;;;;;5007910;28;20193;-78
2022/05/16 13:34:04;;;;;;;3.67;2.83;;;;;;;;;;4991269;28;20313;-78
2022/05/16 13:36:30;;;;;;;3.90;2.53;;;;;;;;;;4987470;28;20181;-78
2022/05/16 13:38:57;;;;;;;3.97;2.57;;;;;;;;;;4990278;28;20177;-79
2022/05/16 13:41:23;;;;;;;5.50;2.20;;;;;;;;;;4989617;28;20208;-78
2022/05/16 13:43:49;;;;;;;4.63;2.10;;;;;;;;;;4985156;28;20278;-77
2022/05/16 13:46:15;;;;;;;4.77;2.50;;;;;;;;;;4989283;28;20186;-78
2022/05/16 13:48:40;;;;;;;4.60;2.80;;;;;;;;;;4985101;28;20208;-78
2022/05/16 13:51:06;;;;;;;4.07;2.70;;;;;;;;;;4986921;28;20190;-78
2022/05/16 13:53:32;;;;;;;3.70;1.97;;;;;;;;;;4989453;28;20181;-78
2022/05/16 13:55:57;;;;;;;4.60;2.40;;;;;;;;;;4987579;28;20201;-78
2022/05/16 13:58:25;;;;;;;3.67;2.60;;;;;;;;;;4990374;28;20645;-77
2022/05/16 14:01:10;;;;;;;4.63;2.53;;;;;;;;;;4989091;28;20266;-78
2022/05/16 14:03:35;;;;;;;4.53;2.30;;;;;;;;;;4992405;28;20203;-78
2022/05/16 14:06:01;;;;;;;3.23;2.17;;;;;;;;;;4988090;28;20255;-78
2022/05/16 14:08:26;;;;;;;2.50;2.17;;;;;;;;;;4987383;28;20207;-78
2022/05/16 14:10:52;;;;;;;5.10;2.90;;;;;;;;;;4989754;28;20282;-78
2022/05/16 14:13:20;;;;;;;3.43;2.33;;;;;;;;;;4993721;28;20211;-78
2022/05/16 14:15:56;;;;;;;3.23;2.20;;;;;;;;;;4986694;28;20189;-78
2022/05/16 14:18:27;;;;;;;2.20;1.73;;;;;;;;;;5005355;28;20232;-77
2022/05/16 14:20:56;;;;;;;3.03;2.50;;;;;;;;;;4987030;28;20251;-78
2022/05/16 14:23:21;;;;;;;2.83;2.00;;;;;;;;;;4986822;28;20185;-78
2022/05/16 14:25:46;;;;;;;3.70;2.40;;;;;;;;;;4989842;28;20240;-78
2022/05/16 14:28:31;;;;;;;2.83;2.00;;;;;;;;;;4989123;28;20182;-78
2022/05/16 14:31:15;;;;;;;3.37;2.10;;;;;;;;;;5005214;28;20188;-78
2022/05/16 14:33:49;;;;;;;3.97;2.20;;;;;;;;;;4986675;28;20260;-77
2022/05/16 14:36:22;;;;;;;2.67;2.30;;;;;;;;;;5001380;28;20241;-78
2022/05/16 14:38:49;;;;;;;5.00;2.30;;;;;;;;;;5003802;28;20303;-78
2022/05/16 14:41:21;;;;;;;4.13;2.40;;;;;;;;;;4984265;28;20188;-78
2022/05/16 14:43:55;;;;;;;3.87;1.90;;;;;;;;;;4988556;28;20189;-77
2022/05/16 14:47:03;;;;;;;6.13;2.57;;;;;;;;;;4989337;28;20187;-79
2022/05/16 14:49:09;;;;;;;4.33;2.97;;;;;;;;;;4988189;28;20202;-78
2022/05/16 14:51:35;;;;;;;3.07;2.50;;;;;;;;;;4991170;28;20249;-78
2022/05/16 14:54:01;;;;;;;4.80;2.40;;;;;;;;;;4991209;28;20186;-78
2022/05/16 14:56:30;;;;;;;5.30;3.20;;;;;;;;;;4994386;28;20227;-77
2022/05/16 14:58:55;;;;;;;3.73;2.37;;;;;;;;;;4994146;28;20170;-78
2022/05/16 15:04:05;;;;;;;3.67;2.77;;;;;;;;;;4994739;28;20261;-77
2022/05/16 15:06:31;;;;;;;4.97;2.37;;;;;;;;;;4993084;28;20270;-78
2022/05/16 15:08:57;;;;;;;3.50;2.47;;;;;;;;;;4993677;28;20211;-78
2022/05/16 15:11:24;;;;;;;4.43;2.90;;;;;;;;;;4992349;28;20207;-77
2022/05/16 15:13:50;;;;;;;2.97;2.70;;;;;;;;;;4991522;28;20187;-78
2022/05/16 15:16:15;;;;;;;3.80;2.70;;;;;;;;;;4992698;28;20209;-78
2022/05/16 15:18:41;;;;;;;3.67;2.60;;;;;;;;;;4992253;28;20257;-78
2022/05/16 15:21:06;;;;;;;3.97;2.33;;;;;;;;;;4991570;28;20181;-78
2022/05/16 15:23:33;;;;;;;3.47;2.63;;;;;;;;;;4991583;28;20215;-78
2022/05/16 15:25:58;;;;;;;4.27;2.50;;;;;;;;;;4993611;28;20217;-78
2022/05/16 15:28:23;;;;;;;5.70;3.30;;;;;;;;;;4983327;28;20215;-79
2022/05/16 15:30:49;;;;;;;4.13;2.50;;;;;;;;;;4991669;28;20182;-78
2022/05/16 15:33:14;;;;;;;3.47;2.37;;;;;;;;;;4992241;28;20207;-78
2022/05/16 15:35:41;;;;;;;3.43;2.40;;;;;;;;;;4995161;28;20268;-77